sensor_id;sensor_type;location;lat;lon;timestamp;P1;durP1;ratioP1;P2;durP2;ratioP2
11203;SDS011;5659;49.408;11.116;2023-02-28T00:00:45;7.13;;;4.73;;
11203;SDS011;5659;49.408;11.116;2023-02-28T00:03:11;6.77;;;5.13;;
11203;SDS011;5659;49.408;11.116;2023-02-28T00:05:55;9.73;;;5.00;;
11203;SDS011;5659;49.408;11.116;2023-02-28T00:08:29;6.53;;;4.43;;
11203;SDS011;5659;49.408;11.116;2023-02-28T00:11:02;7.03;;;4.80;;
11203;SDS011;5659;49.408;11.116;2023-02-28T00:13:30;6.63;;;4.37;;
11203;SDS011;5659;49.408;11.116;2023-02-28T00:16:00;9.67;;;4.93;;
11203;SDS011;5659;49.408;11.116;2023-02-28T00:18:27;7.07;;;4.20;;
11203;SDS011;5659;49.408;11.116;2023-02-28T00:20:53;8.23;;;5.00;;
11203;SDS011;5659;49.408;11.116;2023-02-28T00:23:19;6.20;;;4.80;;
11203;SDS011;5659;49.408;11.116;2023-02-28T00:25:45;10.50;;;5.07;;
11203;SDS011;5659;49.408;11.116;2023-02-28T00:28:11;7.83;;;4.83;;
11203;SDS011;5659;49.408;11.116;2023-02-28T00:30:37;9.20;;;4.93;;
11203;SDS011;5659;49.408;11.116;2023-02-28T00:33:03;8.47;;;4.60;;
11203;SDS011;5659;49.408;11.116;2023-02-28T00:35:29;6.50;;;4.57;;
11203;SDS011;5659;49.408;11.116;2023-02-28T00:37:55;9.43;;;4.57;;
11203;SDS011;5659;49.408;11.116;2023-02-28T00:40:21;8.60;;;5.10;;
11203;SDS011;5659;49.408;11.116;2023-02-28T00:42:47;9.33;;;5.33;;
11203;SDS011;5659;49.408;11.116;2023-02-28T00:45:13;9.13;;;5.80;;
11203;SDS011;5659;49.408;11.116;2023-02-28T00:47:39;8.50;;;4.90;;
11203;SDS011;5659;49.408;11.116;2023-02-28T00:50:06;9.93;;;5.23;;
11203;SDS011;5659;49.408;11.116;2023-02-28T00:52:32;8.27;;;5.20;;
11203;SDS011;5659;49.408;11.116;2023-02-28T00:54:58;9.47;;;5.73;;
11203;SDS011;5659;49.408;11.116;2023-02-28T00:57:24;7.47;;;4.87;;
11203;SDS011;5659;49.408;11.116;2023-02-28T00:59:50;9.20;;;6.00;;
11203;SDS011;5659;49.408;11.116;2023-02-28T01:02:19;7.13;;;4.97;;
11203;SDS011;5659;49.408;11.116;2023-02-28T01:04:45;10.00;;;5.00;;
11203;SDS011;5659;49.408;11.116;2023-02-28T01:07:11;7.73;;;5.47;;
11203;SDS011;5659;49.408;11.116;2023-02-28T01:09:39;7.97;;;5.23;;
11203;SDS011;5659;49.408;11.116;2023-02-28T01:12:06;7.60;;;4.93;;
11203;SDS011;5659;49.408;11.116;2023-02-28T01:14:32;7.47;;;4.80;;
11203;SDS011;5659;49.408;11.116;2023-02-28T01:16:58;10.13;;;5.57;;
11203;SDS011;5659;49.408;11.116;2023-02-28T01:19:24;8.57;;;5.73;;
11203;SDS011;5659;49.408;11.116;2023-02-28T01:21:50;8.73;;;5.43;;
11203;SDS011;5659;49.408;11.116;2023-02-28T01:24:16;7.27;;;5.10;;
11203;SDS011;5659;49.408;11.116;2023-02-28T01:26:41;9.00;;;5.50;;
11203;SDS011;5659;49.408;11.116;2023-02-28T01:29:07;8.63;;;5.27;;
11203;SDS011;5659;49.408;11.116;2023-02-28T01:31:33;9.80;;;5.63;;
11203;SDS011;5659;49.408;11.116;2023-02-28T01:33:59;9.00;;;6.20;;
11203;SDS011;5659;49.408;11.116;2023-02-28T01:36:25;8.27;;;5.43;;
11203;SDS011;5659;49.408;11.116;2023-02-28T01:38:52;8.53;;;5.53;;
11203;SDS011;5659;49.408;11.116;2023-02-28T01:46:10;10.00;;;5.53;;
11203;SDS011;5659;49.408;11.116;2023-02-28T01:48:44;7.60;;;5.43;;
11203;SDS011;5659;49.408;11.116;2023-02-28T01:51:13;7.23;;;5.43;;
11203;SDS011;5659;49.408;11.116;2023-02-28T01:56:13;9.90;;;5.77;;
11203;SDS011;5659;49.408;11.116;2023-02-28T01:58:46;8.33;;;5.37;;
11203;SDS011;5659;49.408;11.116;2023-02-28T02:01:12;8.20;;;6.00;;
11203;SDS011;5659;49.408;11.116;2023-02-28T02:03:46;8.40;;;5.53;;
11203;SDS011;5659;49.408;11.116;2023-02-28T02:06:12;10.73;;;6.37;;
11203;SDS011;5659;49.408;11.116;2023-02-28T02:08:38;9.70;;;6.00;;
11203;SDS011;5659;49.408;11.116;2023-02-28T02:11:04;9.27;;;6.27;;
11203;SDS011;5659;49.408;11.116;2023-02-28T02:16:04;8.90;;;6.10;;
11203;SDS011;5659;49.408;11.116;2023-02-28T02:23:40;9.70;;;6.17;;
11203;SDS011;5659;49.408;11.116;2023-02-28T02:26:21;8.47;;;5.77;;
11203;SDS011;5659;49.408;11.116;2023-02-28T02:31:27;11.40;;;6.43;;
11203;SDS011;5659;49.408;11.116;2023-02-28T02:42:16;8.40;;;6.30;;
11203;SDS011;5659;49.408;11.116;2023-02-28T02:44:52;7.93;;;6.00;;
11203;SDS011;5659;49.408;11.116;2023-02-28T02:47:19;10.93;;;5.70;;
11203;SDS011;5659;49.408;11.116;2023-02-28T02:49:50;7.63;;;5.63;;
11203;SDS011;5659;49.408;11.116;2023-02-28T02:52:18;9.97;;;6.27;;
11203;SDS011;5659;49.408;11.116;2023-02-28T02:54:46;9.93;;;5.97;;
11203;SDS011;5659;49.408;11.116;2023-02-28T02:57:17;8.00;;;5.97;;
11203;SDS011;5659;49.408;11.116;2023-02-28T02:59:44;9.13;;;6.10;;
11203;SDS011;5659;49.408;11.116;2023-02-28T03:02:11;8.47;;;6.00;;
11203;SDS011;5659;49.408;11.116;2023-02-28T03:04:39;10.50;;;6.00;;
11203;SDS011;5659;49.408;11.116;2023-02-28T03:07:06;10.03;;;6.70;;
11203;SDS011;5659;49.408;11.116;2023-02-28T03:09:33;11.23;;;6.70;;
11203;SDS011;5659;49.408;11.116;2023-02-28T03:12:00;9.27;;;6.13;;
11203;SDS011;5659;49.408;11.116;2023-02-28T03:19:41;12.47;;;6.83;;
11203;SDS011;5659;49.408;11.116;2023-02-28T03:24:45;8.60;;;6.83;;
11203;SDS011;5659;49.408;11.116;2023-02-28T03:27:16;10.90;;;7.47;;
11203;SDS011;5659;49.408;11.116;2023-02-28T03:29:43;10.10;;;7.20;;
11203;SDS011;5659;49.408;11.116;2023-02-28T03:32:22;8.77;;;6.50;;
11203;SDS011;5659;49.408;11.116;2023-02-28T03:34:52;10.47;;;6.87;;
11203;SDS011;5659;49.408;11.116;2023-02-28T03:37:22;12.03;;;7.70;;
11203;SDS011;5659;49.408;11.116;2023-02-28T03:39:51;11.87;;;7.40;;
11203;SDS011;5659;49.408;11.116;2023-02-28T03:42:20;9.47;;;7.40;;
11203;SDS011;5659;49.408;11.116;2023-02-28T03:44:57;13.63;;;7.40;;
11203;SDS011;5659;49.408;11.116;2023-02-28T03:47:25;9.40;;;7.80;;
11203;SDS011;5659;49.408;11.116;2023-02-28T03:52:19;14.80;;;9.03;;
11203;SDS011;5659;49.408;11.116;2023-02-28T03:54:50;10.37;;;7.50;;
11203;SDS011;5659;49.408;11.116;2023-02-28T03:57:20;13.40;;;7.83;;
11203;SDS011;5659;49.408;11.116;2023-02-28T04:00:05;12.53;;;7.67;;
11203;SDS011;5659;49.408;11.116;2023-02-28T04:02:32;10.77;;;7.90;;
11203;SDS011;5659;49.408;11.116;2023-02-28T04:04:59;12.67;;;8.90;;
11203;SDS011;5659;49.408;11.116;2023-02-28T04:07:28;11.03;;;8.07;;
11203;SDS011;5659;49.408;11.116;2023-02-28T04:09:54;13.13;;;8.77;;
11203;SDS011;5659;49.408;11.116;2023-02-28T04:12:20;14.43;;;8.67;;
11203;SDS011;5659;49.408;11.116;2023-02-28T04:14:48;13.17;;;8.33;;
11203;SDS011;5659;49.408;11.116;2023-02-28T04:17:14;12.63;;;8.27;;
11203;SDS011;5659;49.408;11.116;2023-02-28T04:19:40;12.00;;;8.60;;
11203;SDS011;5659;49.408;11.116;2023-02-28T04:22:06;11.70;;;8.60;;
11203;SDS011;5659;49.408;11.116;2023-02-28T04:24:31;15.00;;;9.07;;
11203;SDS011;5659;49.408;11.116;2023-02-28T04:26:57;10.23;;;8.40;;
11203;SDS011;5659;49.408;11.116;2023-02-28T04:29:24;12.57;;;8.47;;
11203;SDS011;5659;49.408;11.116;2023-02-28T04:31:51;13.97;;;9.30;;
11203;SDS011;5659;49.408;11.116;2023-02-28T04:34:18;13.43;;;8.80;;
11203;SDS011;5659;49.408;11.116;2023-02-28T04:36:44;16.60;;;8.97;;
11203;SDS011;5659;49.408;11.116;2023-02-28T04:39:11;12.83;;;9.17;;
11203;SDS011;5659;49.408;11.116;2023-02-28T04:41:37;13.87;;;8.73;;
11203;SDS011;5659;49.408;11.116;2023-02-28T04:44:03;12.90;;;8.80;;
11203;SDS011;5659;49.408;11.116;2023-02-28T04:46:29;15.17;;;9.67;;
11203;SDS011;5659;49.408;11.116;2023-02-28T04:48:55;12.30;;;8.83;;
11203;SDS011;5659;49.408;11.116;2023-02-28T04:51:21;13.40;;;9.30;;
11203;SDS011;5659;49.408;11.116;2023-02-28T04:53:48;12.70;;;8.77;;
11203;SDS011;5659;49.408;11.116;2023-02-28T04:56:15;15.60;;;9.50;;
11203;SDS011;5659;49.408;11.116;2023-02-28T04:58:41;12.17;;;9.07;;
11203;SDS011;5659;49.408;11.116;2023-02-28T05:03:43;12.37;;;8.90;;
11203;SDS011;5659;49.408;11.116;2023-02-28T05:06:09;15.00;;;8.67;;
11203;SDS011;5659;49.408;11.116;2023-02-28T05:08:36;12.63;;;8.87;;
11203;SDS011;5659;49.408;11.116;2023-02-28T05:11:02;12.87;;;8.93;;
11203;SDS011;5659;49.408;11.116;2023-02-28T05:13:28;11.00;;;8.53;;
11203;SDS011;5659;49.408;11.116;2023-02-28T05:15:55;15.83;;;9.30;;
11203;SDS011;5659;49.408;11.116;2023-02-28T05:18:21;15.10;;;9.33;;
11203;SDS011;5659;49.408;11.116;2023-02-28T05:20:47;12.43;;;8.97;;
11203;SDS011;5659;49.408;11.116;2023-02-28T05:23:13;14.03;;;9.20;;
11203;SDS011;5659;49.408;11.116;2023-02-28T05:25:40;14.80;;;9.63;;
11203;SDS011;5659;49.408;11.116;2023-02-28T05:28:07;14.50;;;8.77;;
11203;SDS011;5659;49.408;11.116;2023-02-28T05:30:33;11.90;;;8.37;;
11203;SDS011;5659;49.408;11.116;2023-02-28T05:32:59;12.23;;;8.77;;
11203;SDS011;5659;49.408;11.116;2023-02-28T05:35:25;14.77;;;9.53;;
11203;SDS011;5659;49.408;11.116;2023-02-28T05:37:51;13.17;;;9.60;;
11203;SDS011;5659;49.408;11.116;2023-02-28T05:40:18;11.73;;;9.20;;
11203;SDS011;5659;49.408;11.116;2023-02-28T05:42:47;13.40;;;9.77;;
11203;SDS011;5659;49.408;11.116;2023-02-28T05:45:13;12.80;;;9.50;;
11203;SDS011;5659;49.408;11.116;2023-02-28T05:47:39;13.73;;;9.33;;
11203;SDS011;5659;49.408;11.116;2023-02-28T05:50:05;13.77;;;9.63;;
11203;SDS011;5659;49.408;11.116;2023-02-28T05:52:31;16.77;;;9.10;;
11203;SDS011;5659;49.408;11.116;2023-02-28T05:54:57;13.63;;;9.27;;
11203;SDS011;5659;49.408;11.116;2023-02-28T05:57:23;14.67;;;9.87;;
11203;SDS011;5659;49.408;11.116;2023-02-28T05:59:49;14.53;;;9.57;;
11203;SDS011;5659;49.408;11.116;2023-02-28T06:02:16;13.93;;;9.27;;
11203;SDS011;5659;49.408;11.116;2023-02-28T06:04:43;14.03;;;9.53;;
11203;SDS011;5659;49.408;11.116;2023-02-28T06:07:09;15.23;;;9.00;;
11203;SDS011;5659;49.408;11.116;2023-02-28T06:09:35;17.57;;;9.70;;
11203;SDS011;5659;49.408;11.116;2023-02-28T06:12:02;14.87;;;10.10;;
11203;SDS011;5659;49.408;11.116;2023-02-28T06:14:30;16.57;;;10.77;;
11203;SDS011;5659;49.408;11.116;2023-02-28T06:16:56;13.43;;;9.73;;
11203;SDS011;5659;49.408;11.116;2023-02-28T06:19:22;13.70;;;10.27;;
11203;SDS011;5659;49.408;11.116;2023-02-28T06:21:50;14.87;;;10.20;;
11203;SDS011;5659;49.408;11.116;2023-02-28T06:24:17;18.93;;;10.10;;
11203;SDS011;5659;49.408;11.116;2023-02-28T06:26:44;17.77;;;11.30;;
11203;SDS011;5659;49.408;11.116;2023-02-28T06:29:10;14.63;;;10.33;;
11203;SDS011;5659;49.408;11.116;2023-02-28T06:31:36;14.30;;;9.57;;
11203;SDS011;5659;49.408;11.116;2023-02-28T06:34:03;18.73;;;10.17;;
11203;SDS011;5659;49.408;11.116;2023-02-28T06:36:29;16.63;;;10.47;;
11203;SDS011;5659;49.408;11.116;2023-02-28T06:38:55;18.83;;;9.43;;
11203;SDS011;5659;49.408;11.116;2023-02-28T06:41:25;16.17;;;9.33;;
11203;SDS011;5659;49.408;11.116;2023-02-28T06:43:51;14.83;;;9.83;;
11203;SDS011;5659;49.408;11.116;2023-02-28T06:46:17;16.07;;;9.67;;
11203;SDS011;5659;49.408;11.116;2023-02-28T06:48:44;13.20;;;9.97;;
11203;SDS011;5659;49.408;11.116;2023-02-28T06:51:17;15.73;;;10.10;;
11203;SDS011;5659;49.408;11.116;2023-02-28T06:53:45;13.70;;;9.70;;
11203;SDS011;5659;49.408;11.116;2023-02-28T06:56:12;13.80;;;9.77;;
11203;SDS011;5659;49.408;11.116;2023-02-28T06:58:38;14.50;;;9.47;;
11203;SDS011;5659;49.408;11.116;2023-02-28T07:01:05;17.87;;;9.97;;
11203;SDS011;5659;49.408;11.116;2023-02-28T07:03:31;14.63;;;10.20;;
11203;SDS011;5659;49.408;11.116;2023-02-28T07:05:57;16.37;;;9.10;;
11203;SDS011;5659;49.408;11.116;2023-02-28T07:08:24;20.30;;;10.00;;
11203;SDS011;5659;49.408;11.116;2023-02-28T07:10:53;13.07;;;9.27;;
11203;SDS011;5659;49.408;11.116;2023-02-28T07:13:20;17.93;;;8.67;;
11203;SDS011;5659;49.408;11.116;2023-02-28T07:15:56;13.37;;;8.93;;
11203;SDS011;5659;49.408;11.116;2023-02-28T07:18:22;12.13;;;9.37;;
11203;SDS011;5659;49.408;11.116;2023-02-28T07:20:48;13.37;;;8.97;;
11203;SDS011;5659;49.408;11.116;2023-02-28T07:23:14;13.13;;;9.13;;
11203;SDS011;5659;49.408;11.116;2023-02-28T07:25:40;14.43;;;9.07;;
11203;SDS011;5659;49.408;11.116;2023-02-28T07:28:06;14.70;;;9.00;;
11203;SDS011;5659;49.408;11.116;2023-02-28T07:30:32;13.80;;;9.13;;
11203;SDS011;5659;49.408;11.116;2023-02-28T07:32:58;13.10;;;9.10;;
11203;SDS011;5659;49.408;11.116;2023-02-28T07:35:24;13.83;;;9.40;;
11203;SDS011;5659;49.408;11.116;2023-02-28T07:37:50;16.83;;;9.63;;
11203;SDS011;5659;49.408;11.116;2023-02-28T07:40:16;14.33;;;8.87;;
11203;SDS011;5659;49.408;11.116;2023-02-28T07:42:42;12.77;;;8.57;;
11203;SDS011;5659;49.408;11.116;2023-02-28T07:45:09;13.77;;;8.57;;
11203;SDS011;5659;49.408;11.116;2023-02-28T07:47:36;15.50;;;8.50;;
11203;SDS011;5659;49.408;11.116;2023-02-28T07:50:02;12.70;;;8.80;;
11203;SDS011;5659;49.408;11.116;2023-02-28T07:52:29;18.87;;;8.93;;
11203;SDS011;5659;49.408;11.116;2023-02-28T07:54:54;13.30;;;9.00;;
11203;SDS011;5659;49.408;11.116;2023-02-28T07:57:21;13.57;;;8.93;;
11203;SDS011;5659;49.408;11.116;2023-02-28T07:59:47;14.03;;;9.10;;
11203;SDS011;5659;49.408;11.116;2023-02-28T08:02:13;13.33;;;9.13;;
11203;SDS011;5659;49.408;11.116;2023-02-28T08:04:40;15.63;;;9.60;;
11203;SDS011;5659;49.408;11.116;2023-02-28T08:07:06;14.27;;;8.77;;
11203;SDS011;5659;49.408;11.116;2023-02-28T08:09:32;13.47;;;8.70;;
11203;SDS011;5659;49.408;11.116;2023-02-28T08:11:59;16.03;;;9.70;;
11203;SDS011;5659;49.408;11.116;2023-02-28T08:14:25;14.37;;;10.30;;
11203;SDS011;5659;49.408;11.116;2023-02-28T08:16:51;18.47;;;9.27;;
11203;SDS011;5659;49.408;11.116;2023-02-28T08:19:17;17.77;;;10.40;;
11203;SDS011;5659;49.408;11.116;2023-02-28T08:21:43;14.87;;;9.63;;
11203;SDS011;5659;49.408;11.116;2023-02-28T08:24:09;17.87;;;10.33;;
11203;SDS011;5659;49.408;11.116;2023-02-28T08:26:35;15.07;;;10.53;;
11203;SDS011;5659;49.408;11.116;2023-02-28T08:29:01;21.70;;;10.37;;
11203;SDS011;5659;49.408;11.116;2023-02-28T08:31:27;15.37;;;9.23;;
11203;SDS011;5659;49.408;11.116;2023-02-28T08:33:53;14.57;;;9.30;;
11203;SDS011;5659;49.408;11.116;2023-02-28T08:36:21;14.70;;;9.50;;
11203;SDS011;5659;49.408;11.116;2023-02-28T08:38:47;12.60;;;8.40;;
11203;SDS011;5659;49.408;11.116;2023-02-28T08:41:13;14.30;;;9.20;;
11203;SDS011;5659;49.408;11.116;2023-02-28T08:43:39;15.33;;;9.50;;
11203;SDS011;5659;49.408;11.116;2023-02-28T08:46:06;12.80;;;8.60;;
11203;SDS011;5659;49.408;11.116;2023-02-28T08:48:33;11.67;;;8.23;;
11203;SDS011;5659;49.408;11.116;2023-02-28T08:51:00;15.83;;;8.70;;
11203;SDS011;5659;49.408;11.116;2023-02-28T08:53:26;16.10;;;9.27;;
11203;SDS011;5659;49.408;11.116;2023-02-28T08:55:56;12.70;;;9.23;;
11203;SDS011;5659;49.408;11.116;2023-02-28T08:58:22;14.90;;;9.10;;
11203;SDS011;5659;49.408;11.116;2023-02-28T09:00:48;15.40;;;8.73;;
11203;SDS011;5659;49.408;11.116;2023-02-28T09:03:15;14.40;;;8.90;;
11203;SDS011;5659;49.408;11.116;2023-02-28T09:05:42;17.97;;;9.57;;
11203;SDS011;5659;49.408;11.116;2023-02-28T09:08:16;16.43;;;8.50;;
11203;SDS011;5659;49.408;11.116;2023-02-28T09:10:42;12.67;;;8.90;;
11203;SDS011;5659;49.408;11.116;2023-02-28T09:13:08;17.60;;;8.60;;
11203;SDS011;5659;49.408;11.116;2023-02-28T09:15:36;12.40;;;9.20;;
11203;SDS011;5659;49.408;11.116;2023-02-28T09:18:02;13.17;;;9.27;;
11203;SDS011;5659;49.408;11.116;2023-02-28T09:20:28;14.37;;;8.80;;
11203;SDS011;5659;49.408;11.116;2023-02-28T09:22:54;10.37;;;7.53;;
11203;SDS011;5659;49.408;11.116;2023-02-28T09:25:20;13.00;;;8.60;;
11203;SDS011;5659;49.408;11.116;2023-02-28T09:27:46;14.00;;;8.63;;
11203;SDS011;5659;49.408;11.116;2023-02-28T09:30:13;11.83;;;8.20;;
11203;SDS011;5659;49.408;11.116;2023-02-28T09:32:39;13.40;;;8.33;;
11203;SDS011;5659;49.408;11.116;2023-02-28T09:35:05;14.13;;;7.90;;
11203;SDS011;5659;49.408;11.116;2023-02-28T09:37:31;12.20;;;8.10;;
11203;SDS011;5659;49.408;11.116;2023-02-28T09:39:57;11.70;;;8.10;;
11203;SDS011;5659;49.408;11.116;2023-02-28T09:42:25;13.07;;;8.87;;
11203;SDS011;5659;49.408;11.116;2023-02-28T09:44:54;11.63;;;8.27;;
11203;SDS011;5659;49.408;11.116;2023-02-28T09:47:30;12.30;;;8.37;;
11203;SDS011;5659;49.408;11.116;2023-02-28T09:49:58;11.60;;;7.80;;
11203;SDS011;5659;49.408;11.116;2023-02-28T09:52:27;13.03;;;7.87;;
11203;SDS011;5659;49.408;11.116;2023-02-28T09:54:55;11.00;;;8.17;;
11203;SDS011;5659;49.408;11.116;2023-02-28T09:57:35;11.83;;;8.03;;
11203;SDS011;5659;49.408;11.116;2023-02-28T10:05:14;10.63;;;8.30;;
11203;SDS011;5659;49.408;11.116;2023-02-28T10:07:53;12.77;;;8.10;;
11203;SDS011;5659;49.408;11.116;2023-02-28T10:12:58;12.37;;;8.50;;
11203;SDS011;5659;49.408;11.116;2023-02-28T10:15:26;11.27;;;7.60;;
11203;SDS011;5659;49.408;11.116;2023-02-28T10:17:54;11.10;;;7.70;;
11203;SDS011;5659;49.408;11.116;2023-02-28T10:20:23;8.93;;;6.83;;
11203;SDS011;5659;49.408;11.116;2023-02-28T10:25:25;9.75;;;6.55;;
11203;SDS011;5659;49.408;11.116;2023-02-28T10:28:04;11.18;;;6.93;;
11203;SDS011;5659;49.408;11.116;2023-02-28T10:30:31;10.27;;;6.60;;
11203;SDS011;5659;49.408;11.116;2023-02-28T10:32:57;11.05;;;7.50;;
11203;SDS011;5659;49.408;11.116;2023-02-28T10:35:24;8.73;;;6.38;;
11203;SDS011;5659;49.408;11.116;2023-02-28T10:37:54;9.60;;;6.47;;
11203;SDS011;5659;49.408;11.116;2023-02-28T10:43:32;8.60;;;6.47;;
11203;SDS011;5659;49.408;11.116;2023-02-28T10:45:33;11.43;;;6.75;;
11203;SDS011;5659;49.408;11.116;2023-02-28T10:48:44;7.05;;;6.03;;
11203;SDS011;5659;49.408;11.116;2023-02-28T10:50:51;7.68;;;5.60;;
11203;SDS011;5659;49.408;11.116;2023-02-28T10:55:56;8.45;;;5.80;;
11203;SDS011;5659;49.408;11.116;2023-02-28T10:58:22;10.70;;;7.18;;
11203;SDS011;5659;49.408;11.116;2023-02-28T11:00:49;8.77;;;5.88;;
11203;SDS011;5659;49.408;11.116;2023-02-28T11:03:29;10.30;;;6.30;;
11203;SDS011;5659;49.408;11.116;2023-02-28T11:05:55;9.55;;;7.15;;
11203;SDS011;5659;49.408;11.116;2023-02-28T11:08:21;8.35;;;6.20;;
11203;SDS011;5659;49.408;11.116;2023-02-28T11:10:53;8.90;;;5.95;;
11203;SDS011;5659;49.408;11.116;2023-02-28T11:13:20;9.88;;;6.60;;
11203;SDS011;5659;49.408;11.116;2023-02-28T11:15:55;8.23;;;6.40;;
11203;SDS011;5659;49.408;11.116;2023-02-28T11:18:23;8.60;;;6.28;;
11203;SDS011;5659;49.408;11.116;2023-02-28T11:20:51;7.93;;;6.10;;
11203;SDS011;5659;49.408;11.116;2023-02-28T11:23:17;11.50;;;5.97;;
11203;SDS011;5659;49.408;11.116;2023-02-28T11:25:49;9.05;;;6.47;;
11203;SDS011;5659;49.408;11.116;2023-02-28T11:31:02;11.32;;;6.30;;
11203;SDS011;5659;49.408;11.116;2023-02-28T11:33:30;6.88;;;5.85;;
11203;SDS011;5659;49.408;11.116;2023-02-28T11:35:58;9.88;;;6.10;;
11203;SDS011;5659;49.408;11.116;2023-02-28T11:38:24;10.85;;;6.45;;
11203;SDS011;5659;49.408;11.116;2023-02-28T11:40:55;8.02;;;6.28;;
11203;SDS011;5659;49.408;11.116;2023-02-28T11:43:35;7.55;;;5.88;;
11203;SDS011;5659;49.408;11.116;2023-02-28T11:54:05;8.60;;;6.40;;
11203;SDS011;5659;49.408;11.116;2023-02-28T12:20:09;11.77;;;6.82;;
11203;SDS011;5659;49.408;11.116;2023-02-28T12:28:02;8.63;;;5.97;;
11203;SDS011;5659;49.408;11.116;2023-02-28T12:30:30;7.95;;;5.90;;
11203;SDS011;5659;49.408;11.116;2023-02-28T12:33:00;9.48;;;5.80;;
11203;SDS011;5659;49.408;11.116;2023-02-28T12:35:32;9.43;;;6.07;;
11203;SDS011;5659;49.408;11.116;2023-02-28T12:38:09;8.70;;;6.80;;
11203;SDS011;5659;49.408;11.116;2023-02-28T12:40:42;7.80;;;6.40;;
11203;SDS011;5659;49.408;11.116;2023-02-28T12:43:08;12.30;;;5.55;;
11203;SDS011;5659;49.408;11.116;2023-02-28T12:45:55;8.85;;;6.30;;
11203;SDS011;5659;49.408;11.116;2023-02-28T12:48:27;8.00;;;5.85;;
11203;SDS011;5659;49.408;11.116;2023-02-28T12:50:55;8.77;;;5.60;;
11203;SDS011;5659;49.408;11.116;2023-02-28T12:53:23;10.48;;;5.82;;
11203;SDS011;5659;49.408;11.116;2023-02-28T12:56:00;9.15;;;5.85;;
11203;SDS011;5659;49.408;11.116;2023-02-28T13:09:09;7.05;;;5.90;;
11203;SDS011;5659;49.408;11.116;2023-02-28T13:14:05;7.85;;;6.22;;
11203;SDS011;5659;49.408;11.116;2023-02-28T13:19:17;7.93;;;6.30;;
11203;SDS011;5659;49.408;11.116;2023-02-28T13:21:45;8.13;;;6.07;;
11203;SDS011;5659;49.408;11.116;2023-02-28T13:24:35;8.55;;;6.13;;
11203;SDS011;5659;49.408;11.116;2023-02-28T13:29:28;6.65;;;5.38;;
11203;SDS011;5659;49.408;11.116;2023-02-28T13:34:41;10.25;;;6.05;;
11203;SDS011;5659;49.408;11.116;2023-02-28T13:39:51;8.73;;;6.45;;
11203;SDS011;5659;49.408;11.116;2023-02-28T13:47:44;8.20;;;6.40;;
11203;SDS011;5659;49.408;11.116;2023-02-28T13:50:35;9.15;;;6.13;;
11203;SDS011;5659;49.408;11.116;2023-02-28T13:53:07;9.20;;;6.28;;
11203;SDS011;5659;49.408;11.116;2023-02-28T14:03:40;8.10;;;6.68;;
11203;SDS011;5659;49.408;11.116;2023-02-28T14:06:08;10.38;;;6.72;;
11203;SDS011;5659;49.408;11.116;2023-02-28T14:08:35;7.25;;;6.10;;
11203;SDS011;5659;49.408;11.116;2023-02-28T14:11:06;7.85;;;6.35;;
11203;SDS011;5659;49.408;11.116;2023-02-28T14:16:05;8.48;;;6.57;;
11203;SDS011;5659;49.408;11.116;2023-02-28T14:18:32;8.80;;;6.13;;
11203;SDS011;5659;49.408;11.116;2023-02-28T14:21:43;8.27;;;6.03;;
11203;SDS011;5659;49.408;11.116;2023-02-28T14:29:17;8.80;;;6.22;;
11203;SDS011;5659;49.408;11.116;2023-02-28T14:31:54;8.10;;;6.63;;
11203;SDS011;5659;49.408;11.116;2023-02-28T14:37:15;7.75;;;6.65;;
11203;SDS011;5659;49.408;11.116;2023-02-28T14:39:42;9.45;;;6.80;;
11203;SDS011;5659;49.408;11.116;2023-02-28T14:42:27;9.75;;;6.72;;
11203;SDS011;5659;49.408;11.116;2023-02-28T14:44:53;11.77;;;6.90;;
11203;SDS011;5659;49.408;11.116;2023-02-28T14:47:23;9.77;;;7.80;;
11203;SDS011;5659;49.408;11.116;2023-02-28T14:49:51;11.23;;;7.35;;
11203;SDS011;5659;49.408;11.116;2023-02-28T14:54:43;9.10;;;6.65;;
11203;SDS011;5659;49.408;11.116;2023-02-28T14:59:56;8.25;;;6.60;;
11203;SDS011;5659;49.408;11.116;2023-02-28T15:02:23;9.35;;;7.07;;
11203;SDS011;5659;49.408;11.116;2023-02-28T15:04:53;8.43;;;6.75;;
11203;SDS011;5659;49.408;11.116;2023-02-28T15:07:20;10.02;;;6.68;;
11203;SDS011;5659;49.408;11.116;2023-02-28T15:10:06;8.23;;;6.50;;
11203;SDS011;5659;49.408;11.116;2023-02-28T15:12:32;8.45;;;6.70;;
11203;SDS011;5659;49.408;11.116;2023-02-28T15:14:58;9.60;;;6.97;;
11203;SDS011;5659;49.408;11.116;2023-02-28T15:17:24;12.00;;;6.85;;
11203;SDS011;5659;49.408;11.116;2023-02-28T15:19:51;8.80;;;6.50;;
11203;SDS011;5659;49.408;11.116;2023-02-28T15:22:26;9.57;;;6.97;;
11203;SDS011;5659;49.408;11.116;2023-02-28T15:24:54;11.23;;;7.15;;
11203;SDS011;5659;49.408;11.116;2023-02-28T15:27:21;11.60;;;7.13;;
11203;SDS011;5659;49.408;11.116;2023-02-28T15:29:48;10.90;;;7.20;;
11203;SDS011;5659;49.408;11.116;2023-02-28T15:32:38;10.40;;;7.97;;
11203;SDS011;5659;49.408;11.116;2023-02-28T15:35:19;11.45;;;7.57;;
11203;SDS011;5659;49.408;11.116;2023-02-28T15:37:46;10.98;;;7.38;;
11203;SDS011;5659;49.408;11.116;2023-02-28T15:42:39;10.32;;;7.65;;
11203;SDS011;5659;49.408;11.116;2023-02-28T15:45:05;10.38;;;7.18;;
11203;SDS011;5659;49.408;11.116;2023-02-28T15:47:31;11.95;;;7.63;;
11203;SDS011;5659;49.408;11.116;2023-02-28T15:50:01;10.88;;;7.82;;
11203;SDS011;5659;49.408;11.116;2023-02-28T15:52:28;15.60;;;7.78;;
11203;SDS011;5659;49.408;11.116;2023-02-28T15:54:56;9.90;;;7.35;;
11203;SDS011;5659;49.408;11.116;2023-02-28T15:57:27;11.98;;;7.07;;
11203;SDS011;5659;49.408;11.116;2023-02-28T15:59:55;10.00;;;7.60;;
11203;SDS011;5659;49.408;11.116;2023-02-28T16:02:23;11.90;;;8.23;;
11203;SDS011;5659;49.408;11.116;2023-02-28T16:07:27;12.30;;;8.27;;
11203;SDS011;5659;49.408;11.116;2023-02-28T16:09:53;11.25;;;8.52;;
11203;SDS011;5659;49.408;11.116;2023-02-28T16:12:20;16.35;;;8.88;;
11203;SDS011;5659;49.408;11.116;2023-02-28T16:14:47;13.07;;;9.23;;
11203;SDS011;5659;49.408;11.116;2023-02-28T16:17:20;13.70;;;8.57;;
11203;SDS011;5659;49.408;11.116;2023-02-28T16:19:46;13.30;;;9.17;;
11203;SDS011;5659;49.408;11.116;2023-02-28T16:22:12;13.73;;;8.87;;
11203;SDS011;5659;49.408;11.116;2023-02-28T16:24:38;13.47;;;9.37;;
11203;SDS011;5659;49.408;11.116;2023-02-28T16:27:05;15.63;;;8.77;;
11203;SDS011;5659;49.408;11.116;2023-02-28T16:29:32;12.77;;;9.37;;
11203;SDS011;5659;49.408;11.116;2023-02-28T16:32:00;14.27;;;9.27;;
11203;SDS011;5659;49.408;11.116;2023-02-28T16:34:27;15.30;;;9.73;;
11203;SDS011;5659;49.408;11.116;2023-02-28T16:36:53;14.83;;;9.73;;
11203;SDS011;5659;49.408;11.116;2023-02-28T16:39:20;14.40;;;9.60;;
11203;SDS011;5659;49.408;11.116;2023-02-28T16:41:45;13.40;;;9.27;;
11203;SDS011;5659;49.408;11.116;2023-02-28T16:44:14;12.97;;;9.00;;
11203;SDS011;5659;49.408;11.116;2023-02-28T16:46:46;17.97;;;12.13;;
11203;SDS011;5659;49.408;11.116;2023-02-28T16:49:12;18.93;;;13.03;;
11203;SDS011;5659;49.408;11.116;2023-02-28T16:51:39;15.27;;;11.30;;
11203;SDS011;5659;49.408;11.116;2023-02-28T16:54:05;15.73;;;11.73;;
11203;SDS011;5659;49.408;11.116;2023-02-28T16:56:31;17.60;;;12.03;;
11203;SDS011;5659;49.408;11.116;2023-02-28T16:58:59;16.07;;;11.13;;
11203;SDS011;5659;49.408;11.116;2023-02-28T17:01:25;17.13;;;11.00;;
11203;SDS011;5659;49.408;11.116;2023-02-28T17:03:52;15.13;;;11.17;;
11203;SDS011;5659;49.408;11.116;2023-02-28T17:06:27;15.97;;;10.70;;
11203;SDS011;5659;49.408;11.116;2023-02-28T17:08:54;15.27;;;10.03;;
11203;SDS011;5659;49.408;11.116;2023-02-28T17:11:20;18.63;;;11.07;;
11203;SDS011;5659;49.408;11.116;2023-02-28T17:13:46;15.87;;;11.73;;
11203;SDS011;5659;49.408;11.116;2023-02-28T17:16:34;16.40;;;10.43;;